createdAt,value
2024-05-09T00:01:51.655Z,15.70
2024-05-09T00:04:21.542Z,17.65
2024-05-09T00:06:51.691Z,16.88
2024-05-09T00:09:26.863Z,16.52
2024-05-09T00:11:57.240Z,17.48
2024-05-09T00:14:27.377Z,15.23
2024-05-09T00:16:57.925Z,15.93
2024-05-09T00:19:28.221Z,17.27
2024-05-09T00:21:58.367Z,16.58
2024-05-09T00:24:31.117Z,16.67
2024-05-09T00:27:01.315Z,17.23
2024-05-09T00:29:31.386Z,18.00
2024-05-09T00:32:01.604Z,17.55
2024-05-09T00:34:31.633Z,17.20
2024-05-09T00:37:04.018Z,16.67
2024-05-09T00:39:36.754Z,14.55
2024-05-09T00:42:09.800Z,14.82
2024-05-09T00:44:39.796Z,12.93
2024-05-09T00:47:11.090Z,15.55
2024-05-09T00:49:41.872Z,13.93
2024-05-09T00:52:12.835Z,13.45
2024-05-09T00:54:45.567Z,11.70
2024-05-09T00:57:15.880Z,12.93
2024-05-09T00:59:46.769Z,12.15
2024-05-09T01:02:18.274Z,15.57
2024-05-09T01:04:49.403Z,13.98
2024-05-09T01:07:20.053Z,13.30
2024-05-09T01:09:55.479Z,13.10
2024-05-09T01:12:26.857Z,13.23
2024-05-09T01:14:56.803Z,13.82
2024-05-09T01:17:27.813Z,14.00
2024-05-09T01:19:58.034Z,15.27
2024-05-09T01:22:28.703Z,13.27
2024-05-09T01:25:01.346Z,16.23
2024-05-09T01:27:33.817Z,15.90
2024-05-09T01:30:06.960Z,16.77
2024-05-09T01:32:39.554Z,17.23
2024-05-09T01:35:12.580Z,16.30
2024-05-09T01:37:43.226Z,18.98
2024-05-09T01:40:21.971Z,19.65
2024-05-09T01:42:55.020Z,17.80
2024-05-09T01:45:25.437Z,18.88
2024-05-09T01:47:57.314Z,18.15
2024-05-09T01:50:38.121Z,19.73
2024-05-09T01:53:56.350Z,20.35
2024-05-09T01:56:29.114Z,21.35
2024-05-09T01:58:59.555Z,22.60
2024-05-09T02:01:29.917Z,28.98
2024-05-09T02:04:20.272Z,26.85
2024-05-09T02:06:50.475Z,30.23
2024-05-09T02:09:20.620Z,29.77
2024-05-09T02:11:53.540Z,29.50
2024-05-09T02:14:23.854Z,30.73
2024-05-09T02:16:56.389Z,31.23
2024-05-09T02:19:27.105Z,30.75
2024-05-09T02:21:57.272Z,31.92
2024-05-09T02:24:27.518Z,31.50
2024-05-09T02:27:00.115Z,30.58
2024-05-09T02:29:30.256Z,30.98
2024-05-09T02:32:00.497Z,34.17
2024-05-09T02:34:28.053Z,29.55
2024-05-09T02:36:58.407Z,30.77
2024-05-09T02:39:25.852Z,30.55
2024-05-09T02:41:55.983Z,31.02
2024-05-09T02:44:26.100Z,31.70
2024-05-09T02:46:56.452Z,32.28
2024-05-09T02:49:23.957Z,31.70
2024-05-09T02:51:54.083Z,32.55
2024-05-09T02:54:21.499Z,31.58
2024-05-09T02:56:51.542Z,33.08
2024-05-09T02:59:18.992Z,30.83
2024-05-09T03:01:52.057Z,30.98
2024-05-09T03:04:20.339Z,30.40
2024-05-09T03:06:50.710Z,31.88
2024-05-09T03:09:18.127Z,35.08
2024-05-09T03:11:48.245Z,34.08
2024-05-09T03:14:16.714Z,29.10
2024-05-09T03:16:46.806Z,27.77
2024-05-09T03:19:17.587Z,30.75
2024-05-09T03:21:47.649Z,31.77
2024-05-09T03:24:17.955Z,32.35
2024-05-09T03:26:48.090Z,28.05
2024-05-09T03:29:15.572Z,30.92
2024-05-09T03:31:45.725Z,30.90
2024-05-09T03:34:13.272Z,29.20
2024-05-09T03:36:47.028Z,31.92
2024-05-09T03:39:17.079Z,31.00
2024-05-09T03:41:47.243Z,33.40
2024-05-09T03:44:17.228Z,32.58
2024-05-09T03:46:44.670Z,29.80
2024-05-09T03:49:14.890Z,26.67
2024-05-09T03:51:45.055Z,28.33
2024-05-09T03:54:15.088Z,28.10
2024-05-09T03:56:42.511Z,30.23
2024-05-09T03:59:12.936Z,27.92
2024-05-09T04:01:40.592Z,31.25
2024-05-09T04:04:11.884Z,31.58
2024-05-09T04:06:39.348Z,31.67
2024-05-09T04:09:12.141Z,31.25
2024-05-09T04:11:39.563Z,31.33
2024-05-09T04:14:09.981Z,27.58
2024-05-09T04:16:37.242Z,29.23
2024-05-09T04:19:07.377Z,28.83
2024-05-09T04:21:34.648Z,33.15
2024-05-09T04:24:04.650Z,29.65
2024-05-09T04:26:34.601Z,27.75
2024-05-09T04:29:04.645Z,27.50
2024-05-09T04:31:36.231Z,27.35
2024-05-09T04:34:06.857Z,27.65
2024-05-09T04:36:44.844Z,26.70
2024-05-09T04:39:15.094Z,26.52
2024-05-09T04:41:45.147Z,27.52
2024-05-09T04:44:15.179Z,27.88
2024-05-09T04:46:43.076Z,29.05
2024-05-09T04:49:13.170Z,29.58
2024-05-09T04:51:42.196Z,28.38
2024-05-09T04:54:22.223Z,28.52
2024-05-09T04:57:00.194Z,31.40
2024-05-09T04:59:30.304Z,30.13
2024-05-09T05:01:57.988Z,30.92
2024-05-09T05:04:28.266Z,27.85
2024-05-09T05:06:56.371Z,28.98
2024-05-09T05:09:27.569Z,28.73
2024-05-09T05:11:59.611Z,28.80
2024-05-09T05:14:30.162Z,28.75
2024-05-09T05:17:00.289Z,29.20
2024-05-09T05:19:27.838Z,30.13
2024-05-09T05:21:57.917Z,29.80
2024-05-09T05:24:25.284Z,28.63
2024-05-09T05:26:55.108Z,29.88
2024-05-09T05:29:22.558Z,29.15
2024-05-09T05:31:55.580Z,29.27
2024-05-09T05:34:23.057Z,29.63
2024-05-09T05:36:52.994Z,25.65
2024-05-09T05:39:20.365Z,27.90
2024-05-09T05:41:50.333Z,28.00
2024-05-09T05:44:18.011Z,28.55
2024-05-09T05:46:48.072Z,29.08
2024-05-09T05:49:18.322Z,31.48
2024-05-09T05:51:48.384Z,26.75
2024-05-09T05:54:15.866Z,28.67
2024-05-09T05:56:45.924Z,28.73
2024-05-09T05:59:15.141Z,29.75
2024-05-09T06:01:45.596Z,29.83
2024-05-09T06:04:13.188Z,29.42
2024-05-09T06:06:45.758Z,30.63
2024-05-09T06:09:13.186Z,29.45
2024-05-09T06:11:43.350Z,27.88
2024-05-09T06:14:10.722Z,29.15
2024-05-09T06:16:40.608Z,28.85
2024-05-09T06:19:08.101Z,29.27
2024-05-09T06:21:38.236Z,30.23
2024-05-09T06:24:08.226Z,29.98
2024-05-09T06:26:38.466Z,29.17
2024-05-09T06:29:05.988Z,29.25
2024-05-09T06:31:35.932Z,27.55
2024-05-09T06:34:03.363Z,28.55
2024-05-09T06:36:33.811Z,28.17
2024-05-09T06:39:01.351Z,28.15
2024-05-09T06:41:34.630Z,27.23
2024-05-09T06:44:02.323Z,26.55
2024-05-09T06:46:32.524Z,26.50
2024-05-09T06:49:04.491Z,28.00
2024-05-09T06:51:34.718Z,27.20
2024-05-09T06:54:02.161Z,26.83
2024-05-09T06:56:35.490Z,26.73
2024-05-09T06:59:03.147Z,25.48
2024-05-09T07:01:33.531Z,25.85
2024-05-09T07:04:01.164Z,25.25
2024-05-09T07:06:31.456Z,26.38
2024-05-09T07:08:58.802Z,26.92
2024-05-09T07:11:28.872Z,26.75
2024-05-09T07:13:58.967Z,26.33
2024-05-09T07:16:28.891Z,24.95
2024-05-09T07:18:56.525Z,24.88
2024-05-09T07:21:26.686Z,25.30
2024-05-09T07:23:54.134Z,25.23
2024-05-09T07:26:24.132Z,23.33
2024-05-09T07:28:51.586Z,23.45
2024-05-09T07:31:28.131Z,24.27
2024-05-09T07:33:55.940Z,23.65
2024-05-09T07:36:28.105Z,23.10
2024-05-09T07:38:55.402Z,23.92
2024-05-09T07:41:25.406Z,21.25
2024-05-09T07:43:52.837Z,22.52
2024-05-09T07:47:20.346Z,23.38
2024-05-09T07:50:54.408Z,22.67
2024-05-09T07:53:26.774Z,22.55
2024-05-09T07:54:50.054Z,23.20
2024-05-09T07:57:20.042Z,22.20
2024-05-09T07:59:47.473Z,24.13
2024-05-09T08:02:20.238Z,21.13
2024-05-09T08:04:48.006Z,20.50
2024-05-09T08:07:19.068Z,21.23
2024-05-09T08:09:46.549Z,21.25
2024-05-09T08:12:16.717Z,20.58
2024-05-09T08:14:43.981Z,20.50
2024-05-09T08:17:14.290Z,21.55
2024-05-09T08:19:44.560Z,22.88
2024-05-09T08:22:14.606Z,22.13
2024-05-09T08:24:42.402Z,20.88
2024-05-09T08:27:12.372Z,21.25
2024-05-09T08:29:39.911Z,21.85
2024-05-09T08:32:12.666Z,20.95
2024-05-09T08:34:40.178Z,20.95
2024-05-09T08:37:19.687Z,22.27
2024-05-09T08:39:49.953Z,21.33
2024-05-09T08:42:20.371Z,20.52
2024-05-09T08:44:48.718Z,21.67
2024-05-09T08:47:18.774Z,22.08
2024-05-09T08:49:48.308Z,21.55
2024-05-09T08:52:20.865Z,21.30
2024-05-09T08:54:48.208Z,20.30
2024-05-09T08:57:18.724Z,21.98
2024-05-09T08:59:50.945Z,21.27
2024-05-09T09:02:21.817Z,20.05
2024-05-09T09:04:53.337Z,18.60
2024-05-09T09:07:26.856Z,18.67
2024-05-09T09:09:54.650Z,18.67
2024-05-09T09:12:24.621Z,18.92
2024-05-09T09:14:52.025Z,18.58
2024-05-09T09:17:22.162Z,19.13
2024-05-09T09:19:49.698Z,18.45
2024-05-09T09:22:19.910Z,17.30
2024-05-09T09:24:50.056Z,18.23
2024-05-09T09:27:20.148Z,17.27
2024-05-09T09:29:47.429Z,17.65
2024-05-09T09:32:18.555Z,17.55
2024-05-09T09:34:48.289Z,17.25
2024-05-09T09:37:22.219Z,17.02
2024-05-09T09:39:52.215Z,18.40
2024-05-09T09:42:23.502Z,18.23
2024-05-09T09:45:01.830Z,16.00
2024-05-09T09:47:39.823Z,17.60
2024-05-09T09:50:14.195Z,17.10
2024-05-09T09:52:47.716Z,16.70
2024-05-09T09:55:17.997Z,17.58
2024-05-09T09:57:48.022Z,16.73
2024-05-09T10:00:24.035Z,16.67
2024-05-09T10:02:57.603Z,16.25
2024-05-09T10:05:25.405Z,16.48
2024-05-09T10:07:55.830Z,14.65
2024-05-09T10:10:32.379Z,15.75
2024-05-09T10:13:03.516Z,16.33
2024-05-09T10:15:31.355Z,15.05
2024-05-09T10:18:07.880Z,15.77
2024-05-09T10:20:42.600Z,15.77
2024-05-09T10:23:26.701Z,16.23
2024-05-09T10:26:01.446Z,15.63
2024-05-09T10:28:31.715Z,17.15
2024-05-09T10:31:08.967Z,16.23
2024-05-09T10:33:42.368Z,16.15
2024-05-09T10:36:13.118Z,16.80
2024-05-09T10:38:43.862Z,15.13
2024-05-09T10:41:13.825Z,15.02
2024-05-09T10:43:44.361Z,14.75
2024-05-09T10:46:12.432Z,15.15
2024-05-09T10:48:44.551Z,15.55
2024-05-09T10:51:12.018Z,17.85
2024-05-09T10:53:45.254Z,16.17
2024-05-09T10:56:17.125Z,15.75
2024-05-09T10:58:48.187Z,15.52
2024-05-09T11:01:16.469Z,15.23
2024-05-09T11:03:49.906Z,15.35
2024-05-09T11:06:18.400Z,16.17
2024-05-09T11:08:48.907Z,14.90
2024-05-09T11:11:19.000Z,15.30
2024-05-09T11:13:49.203Z,14.98
2024-05-09T11:16:19.433Z,14.65
2024-05-09T11:18:56.591Z,13.77
2024-05-09T11:21:24.383Z,14.63
2024-05-09T11:23:54.678Z,14.10
2024-05-09T11:26:25.515Z,14.77
2024-05-09T11:28:55.422Z,15.63
2024-05-09T11:31:22.857Z,17.00
2024-05-09T11:33:53.271Z,16.15
2024-05-09T11:36:20.794Z,15.25
2024-05-09T11:38:50.571Z,15.65
2024-05-09T11:41:18.939Z,16.58
2024-05-09T11:43:51.591Z,15.35
2024-05-09T11:46:19.103Z,14.57
2024-05-09T11:48:51.688Z,14.18
2024-05-09T11:51:19.303Z,15.55
2024-05-09T11:53:51.684Z,14.88
2024-05-09T11:56:18.920Z,15.52
2024-05-09T11:58:51.447Z,16.08
2024-05-09T12:01:20.035Z,15.88
2024-05-09T12:03:51.640Z,15.52
2024-05-09T12:06:19.074Z,14.68
2024-05-09T12:08:48.970Z,14.70
2024-05-09T12:11:16.761Z,15.98
2024-05-09T12:13:46.872Z,15.05
2024-05-09T12:16:16.932Z,15.98
2024-05-09T12:18:47.085Z,15.32
2024-05-09T12:21:17.469Z,15.98
2024-05-09T12:23:47.347Z,14.95
2024-05-09T12:26:15.861Z,14.60
2024-05-09T12:28:46.006Z,14.40
2024-05-09T12:31:13.223Z,13.95
2024-05-09T12:33:45.872Z,13.65
2024-05-09T12:36:13.147Z,16.30
2024-05-09T12:38:43.765Z,13.52
2024-05-09T12:41:11.046Z,14.73
2024-05-09T12:43:41.086Z,15.30
2024-05-09T12:46:08.479Z,14.38
2024-05-09T12:48:38.620Z,14.52
2024-05-09T12:51:08.863Z,14.18
2024-05-09T12:53:39.067Z,14.20
2024-05-09T12:58:37.134Z,14.30
2024-05-09T13:01:04.938Z,14.02
2024-05-09T13:03:35.191Z,14.55
2024-05-09T13:06:02.718Z,14.57
2024-05-09T13:08:36.471Z,15.70
2024-05-09T13:11:03.880Z,15.32
2024-05-09T13:13:33.800Z,14.02
2024-05-09T13:16:01.195Z,14.95
2024-05-09T13:18:33.356Z,13.95
2024-05-09T13:21:00.801Z,13.80
2024-05-09T13:23:32.619Z,13.30
2024-05-09T13:26:07.707Z,14.25
2024-05-09T13:28:45.155Z,12.88
2024-05-09T13:31:16.638Z,12.88
2024-05-09T13:33:52.501Z,12.32
2024-05-09T13:36:22.523Z,13.65
2024-05-09T13:39:19.979Z,14.30
2024-05-09T13:41:55.950Z,13.73
2024-05-09T13:44:30.891Z,12.82
2024-05-09T13:47:00.950Z,13.63
2024-05-09T13:49:46.291Z,13.75
2024-05-09T13:52:15.600Z,13.32
2024-05-09T13:54:46.243Z,12.32
2024-05-09T13:57:16.783Z,12.90
2024-05-09T13:59:49.620Z,14.75
2024-05-09T14:02:17.039Z,14.02
2024-05-09T14:04:47.256Z,14.52
2024-05-09T14:07:14.864Z,13.35
2024-05-09T14:09:44.843Z,13.40
2024-05-09T14:12:12.331Z,13.65
2024-05-09T14:14:44.985Z,13.30
2024-05-09T14:17:12.374Z,12.38
2024-05-09T14:19:42.307Z,15.15
2024-05-09T14:22:10.140Z,13.63
2024-05-09T14:24:40.124Z,13.85
2024-05-09T14:27:07.589Z,13.23
2024-05-09T14:29:38.023Z,13.25
2024-05-09T14:32:08.087Z,13.43
2024-05-09T14:34:38.033Z,13.32
2024-05-09T14:37:05.756Z,13.10
2024-05-09T14:39:35.851Z,13.00
2024-05-09T14:42:03.391Z,13.05
2024-05-09T14:44:33.370Z,12.45
2024-05-09T14:47:00.704Z,12.73
2024-05-09T14:49:33.544Z,11.65
2024-05-09T14:52:01.013Z,11.98
2024-05-09T14:54:31.830Z,12.88
2024-05-09T14:56:59.212Z,12.52
2024-05-09T14:59:29.086Z,12.98
2024-05-09T15:01:56.418Z,12.80
2024-05-09T15:04:27.028Z,12.30
2024-05-09T15:06:57.289Z,13.18
2024-05-09T15:09:27.251Z,12.50
2024-05-09T15:11:54.645Z,13.60
2024-05-09T15:14:24.507Z,11.73
2024-05-09T15:16:51.934Z,11.50
2024-05-09T15:19:21.973Z,11.00
2024-05-09T15:21:49.399Z,12.55
2024-05-09T15:24:22.037Z,11.80
2024-05-09T15:26:49.364Z,11.52
2024-05-09T15:29:19.198Z,12.52
2024-05-09T15:31:46.645Z,11.35
2024-05-09T15:34:16.449Z,11.93
2024-05-09T15:36:44.065Z,12.27
2024-05-09T15:39:14.135Z,12.32
2024-05-09T15:41:44.078Z,11.50
2024-05-09T15:44:14.059Z,11.63
2024-05-09T15:46:41.399Z,10.70
2024-05-09T15:49:11.903Z,11.45
2024-05-09T15:51:39.401Z,11.68
2024-05-09T15:54:09.351Z,11.32
2024-05-09T15:56:36.621Z,11.95
2024-05-09T15:59:11.494Z,11.68
2024-05-09T16:01:39.062Z,11.02
2024-05-09T16:04:10.456Z,11.55
2024-05-09T16:06:37.952Z,10.55
2024-05-09T16:09:08.660Z,10.98
2024-05-09T16:11:35.978Z,11.10
2024-05-09T16:14:05.894Z,11.18
2024-05-09T16:16:35.920Z,10.20
2024-05-09T16:19:05.966Z,10.73
2024-05-09T16:21:33.345Z,10.05
2024-05-09T16:24:03.342Z,10.77
2024-05-09T16:26:30.626Z,10.68
2024-05-09T16:29:00.618Z,10.18
2024-05-09T16:31:28.140Z,10.57
2024-05-09T16:34:00.826Z,10.20
2024-05-09T16:36:28.250Z,11.57
2024-05-09T16:38:58.177Z,10.45
2024-05-09T16:41:25.474Z,11.35
2024-05-09T16:43:55.465Z,10.13
2024-05-09T16:46:23.059Z,10.52
2024-05-09T16:48:53.309Z,10.68
2024-05-09T16:51:23.308Z,10.25
2024-05-09T16:53:53.287Z,10.73
2024-05-09T16:56:23.717Z,11.02
2024-05-09T16:58:53.966Z,10.75
2024-05-09T17:01:23.432Z,10.32
2024-05-09T17:03:53.666Z,9.77
2024-05-09T17:06:29.610Z,9.20
2024-05-09T17:09:15.714Z,8.88
2024-05-09T17:11:45.622Z,9.15
2024-05-09T17:14:16.864Z,8.30
2024-05-09T17:16:54.599Z,9.35
2024-05-09T17:19:26.703Z,9.55
2024-05-09T17:22:01.111Z,9.10
2024-05-09T17:24:31.110Z,8.27
2024-05-09T17:26:58.479Z,8.95
2024-05-09T17:29:28.838Z,6.63
2024-05-09T17:31:56.145Z,8.30
2024-05-09T17:34:27.019Z,8.13
2024-05-09T17:36:54.563Z,7.43
2024-05-09T17:39:27.192Z,6.80
2024-05-09T17:41:54.528Z,7.13
2024-05-09T17:44:24.548Z,7.30
2024-05-09T17:46:51.904Z,7.35
2024-05-09T17:49:22.127Z,7.93
2024-05-09T17:51:52.636Z,8.27
2024-05-09T17:54:22.657Z,7.75
2024-05-09T17:56:53.291Z,7.20
2024-05-09T17:59:23.283Z,7.25
2024-05-09T18:01:50.691Z,6.75
2024-05-09T18:04:20.918Z,7.00
2024-05-09T18:06:48.290Z,6.95
2024-05-09T18:09:18.329Z,7.90
2024-05-09T18:11:48.446Z,13.98
2024-05-09T18:14:18.689Z,14.43
2024-05-09T18:16:48.609Z,18.67
2024-05-09T18:19:16.176Z,21.40
2024-05-09T18:21:46.143Z,22.10
2024-05-09T18:24:13.419Z,22.23
2024-05-09T18:26:43.752Z,21.00
2024-05-09T18:29:11.136Z,21.58
2024-05-09T18:31:43.606Z,20.70
2024-05-09T18:34:13.159Z,22.45
2024-05-09T18:36:43.268Z,21.05
2024-05-09T18:39:11.079Z,21.15
2024-05-09T18:41:40.859Z,21.33
2024-05-09T18:44:08.128Z,24.90
2024-05-09T18:46:37.973Z,24.80
2024-05-09T18:49:08.065Z,25.45
2024-05-09T18:51:37.963Z,25.92
2024-05-09T18:54:05.268Z,27.77
2024-05-09T18:56:35.116Z,27.15
2024-05-09T18:59:02.456Z,28.80
2024-05-09T19:01:32.722Z,28.27
2024-05-09T19:04:00.211Z,27.20
2024-05-09T19:06:32.993Z,28.23
2024-05-09T19:09:02.642Z,28.60
2024-05-09T19:11:32.572Z,29.30
2024-05-09T19:14:04.338Z,29.50
2024-05-09T19:16:34.383Z,30.27
2024-05-09T19:19:03.138Z,30.88
2024-05-09T19:21:36.966Z,29.83
2024-05-09T19:24:05.632Z,32.45
2024-05-09T19:26:35.550Z,33.65
2024-05-09T19:29:02.892Z,34.45
2024-05-09T19:31:32.938Z,33.50
2024-05-09T19:34:00.328Z,34.33
2024-05-09T19:36:30.576Z,33.38
2024-05-09T19:39:02.974Z,32.92
2024-05-09T19:41:32.835Z,33.05
2024-05-09T19:44:00.174Z,35.53
2024-05-09T19:46:30.276Z,33.65
2024-05-09T19:48:58.335Z,34.58
2024-05-09T19:51:28.380Z,36.03
2024-05-09T19:53:55.893Z,34.75
2024-05-09T19:56:28.461Z,35.50
2024-05-09T19:58:56.029Z,35.20
2024-05-09T20:01:25.988Z,34.95
2024-05-09T20:03:56.893Z,32.83
2024-05-09T20:06:29.149Z,34.47
2024-05-09T20:08:58.322Z,33.90
2024-05-09T20:11:34.158Z,34.25
2024-05-09T20:14:01.555Z,34.22
2024-05-09T20:16:31.487Z,35.42
2024-05-09T20:18:58.969Z,33.80
2024-05-09T20:21:28.907Z,34.13
2024-05-09T20:23:56.398Z,34.63
2024-05-09T20:26:28.688Z,35.00
2024-05-09T20:28:59.905Z,32.47
2024-05-09T20:31:29.873Z,33.33
2024-05-09T20:33:57.268Z,33.60
2024-05-09T20:36:27.162Z,33.78
2024-05-09T20:38:55.505Z,33.83
2024-05-09T20:41:25.327Z,34.38
2024-05-09T20:43:55.171Z,34.58
2024-05-09T20:46:27.868Z,36.15
2024-05-09T20:48:56.454Z,33.97
2024-05-09T20:51:27.632Z,35.97
2024-05-09T20:53:56.174Z,35.45
2024-05-09T20:56:26.285Z,34.38
2024-05-09T20:58:53.667Z,35.60
2024-05-09T21:01:23.673Z,34.83
2024-05-09T21:03:53.814Z,35.47
2024-05-09T21:06:24.039Z,34.70
2024-05-09T21:08:51.380Z,34.92
2024-05-09T21:11:22.914Z,36.58
2024-05-09T21:13:51.003Z,36.40
2024-05-09T21:16:21.026Z,36.42
2024-05-09T21:18:48.444Z,35.05
2024-05-09T21:21:20.965Z,36.00
2024-05-09T21:23:48.288Z,36.47
2024-05-09T21:26:19.591Z,38.08
2024-05-09T21:28:46.908Z,35.95
2024-05-09T21:31:16.897Z,36.63
2024-05-09T21:33:44.518Z,36.00
2024-05-09T21:36:14.539Z,37.45
2024-05-09T21:38:44.440Z,38.30
2024-05-09T21:41:14.397Z,41.15
2024-05-09T21:43:41.697Z,38.47
2024-05-09T21:46:11.694Z,38.63
2024-05-09T21:48:39.401Z,38.28
2024-05-09T21:51:16.182Z,37.30
2024-05-09T21:53:46.012Z,35.75
2024-05-09T21:56:15.943Z,38.50
2024-05-09T21:58:43.161Z,37.38
2024-05-09T22:01:13.126Z,37.45
2024-05-09T22:03:40.632Z,41.33
2024-05-09T22:06:11.273Z,41.78
2024-05-09T22:08:38.481Z,42.15
2024-05-09T22:11:11.323Z,42.42
2024-05-09T22:13:38.680Z,40.17
2024-05-09T22:16:09.839Z,41.22
2024-05-09T22:18:37.214Z,42.13
2024-05-09T22:21:07.329Z,41.10
2024-05-09T22:23:34.676Z,42.00
2024-05-09T22:26:04.550Z,40.35
2024-05-09T22:28:34.602Z,41.47
2024-05-09T22:31:04.572Z,40.45
2024-05-09T22:33:32.171Z,39.03
2024-05-09T22:36:02.362Z,41.45
2024-05-09T22:38:30.132Z,40.50
2024-05-09T22:41:00.104Z,41.10
2024-05-09T22:43:27.481Z,40.25
2024-05-09T22:46:00.019Z,41.20
2024-05-09T22:48:27.627Z,41.35
2024-05-09T22:50:57.714Z,41.28
2024-05-09T22:53:25.623Z,38.00
2024-05-09T22:55:55.911Z,39.45
2024-05-09T22:58:24.020Z,38.55
2024-05-09T23:00:59.333Z,37.17
2024-05-09T23:03:26.806Z,40.28
2024-05-09T23:05:56.712Z,40.05
2024-05-09T23:08:24.132Z,37.58
2024-05-09T23:10:54.161Z,38.17
2024-05-09T23:13:21.441Z,40.25
2024-05-09T23:15:51.497Z,39.10
2024-05-09T23:18:21.762Z,38.90
2024-05-09T23:20:51.922Z,39.78
2024-05-09T23:23:19.275Z,37.85
2024-05-09T23:25:49.125Z,38.92
2024-05-09T23:28:16.453Z,38.00
2024-05-09T23:30:46.371Z,37.42
2024-05-09T23:33:14.334Z,38.42
2024-05-09T23:35:47.153Z,37.60
2024-05-09T23:38:14.751Z,37.80
2024-05-09T23:40:44.725Z,38.97
2024-05-09T23:43:12.856Z,36.10
2024-05-09T23:45:43.468Z,36.20
2024-05-09T23:48:11.492Z,37.65
2024-05-09T23:50:41.850Z,36.00
2024-05-09T23:53:14.288Z,36.47
2024-05-09T23:55:44.367Z,35.75
2024-05-09T23:58:11.999Z,35.67
